Time;durP1;ratioP1;P1;durP2;ratioP2;P2;SDS_P1;SDS_P2;PMS_P1;PMS_P2;Temp;Humidity;BMP_temperature;BMP_pressure;BME280_temperature;BME280_humidity;BME280_pressure;Samples;Min_cycle;Max_cycle;Signal;HPM_P1;HPM_P2
2023/07/04 00:01:09;;;;;;;2.80;2.60;;;22.70;55.50;23.50;100385.00;;;;5009915;28;20195;-48
2023/07/04 00:03:35;;;;;;;2.87;2.67;;;22.70;55.50;23.50;100389.00;;;;4992631;28;20183;-47
2023/07/04 00:06:01;;;;;;;2.87;2.67;;;22.70;55.50;23.50;100386.00;;;;5019770;28;20183;-49
2023/07/04 00:08:27;;;;;;;3.10;2.80;;;22.70;55.50;23.50;100390.00;;;;5018457;28;20176;-48
2023/07/04 00:10:56;;;;;;;2.83;2.63;;;22.70;55.50;23.50;100389.00;;;;5008774;28;20280;-47
2023/07/04 00:13:22;;;;;;;2.80;2.60;;;22.70;55.50;23.50;100391.00;;;;5008646;28;20218;-49
2023/07/04 00:15:49;;;;;;;2.80;2.60;;;22.70;55.50;23.50;100381.00;;;;5008197;28;20231;-48
2023/07/04 00:18:20;;;;;;;2.80;2.60;;;22.70;55.50;23.40;100385.00;;;;5008445;28;20666;-47
2023/07/04 00:20:54;;;;;;;2.70;2.50;;;22.70;55.50;23.40;100390.00;;;;5011452;28;20171;-48
2023/07/04 00:23:24;;;;;;;2.63;2.43;;;22.70;55.50;23.40;100384.00;;;;5012228;28;20180;-48
2023/07/04 00:25:52;;;;;;;2.50;2.27;;;22.70;55.50;23.40;100377.00;;;;5012208;28;20249;-48
2023/07/04 00:28:21;;;;;;;2.67;2.47;;;22.70;55.50;23.40;100387.00;;;;5012496;28;20192;-47
2023/07/04 00:30:48;;;;;;;3.07;2.63;;;22.70;55.60;23.40;100388.00;;;;5012756;28;20183;-47
2023/07/04 00:33:13;;;;;;;2.77;2.57;;;22.70;55.60;23.40;100400.00;;;;4994927;28;20178;-48
2023/07/04 00:35:40;;;;;;;3.37;2.80;;;22.70;56.20;23.40;100398.00;;;;5012210;28;20195;-49
2023/07/04 00:38:06;;;;;;;2.70;2.50;;;22.60;55.50;23.40;100395.00;;;;5012466;28;20248;-49
2023/07/04 00:40:31;;;;;;;2.70;2.50;;;22.70;55.60;23.30;100399.00;;;;5012605;28;20175;-48
2023/07/04 00:43:03;;;;;;;2.70;2.50;;;22.60;55.50;23.30;100402.00;;;;5021521;28;20174;-48
2023/07/04 00:45:35;;;;;;;2.70;2.50;;;22.60;55.50;23.30;100395.00;;;;5011383;28;20197;-49
2023/07/04 00:48:03;;;;;;;3.03;2.53;;;22.60;55.50;23.30;100404.00;;;;4995902;28;20190;-48
2023/07/04 00:50:31;;;;;;;2.73;2.53;;;22.60;55.50;23.30;100397.00;;;;4980582;28;20600;-47
2023/07/04 00:53:00;;;;;;;3.00;2.80;;;22.60;55.50;23.30;100398.00;;;;4980057;28;20547;-47
2023/07/04 00:55:26;;;;;;;2.67;2.47;;;22.60;55.50;23.30;100370.00;;;;4995491;28;20281;-48
2023/07/04 00:57:51;;;;;;;2.80;2.60;;;22.60;55.50;23.30;100393.00;;;;5007775;28;20231;-49
2023/07/04 01:00:20;;;;;;;3.13;2.83;;;22.60;55.50;23.30;100390.00;;;;5006690;28;20539;-49
2023/07/04 01:03:00;;;;;;;2.83;2.60;;;22.60;55.50;23.30;100375.00;;;;5011856;28;20175;-48
2023/07/04 01:05:52;;;;;;;2.70;2.50;;;22.50;55.50;23.30;100396.00;;;;4994314;28;20175;-48
2023/07/04 01:08:29;;;;;;;2.90;2.70;;;22.50;55.50;23.20;100411.00;;;;4982742;28;20192;-48
2023/07/04 01:10:55;;;;;;;2.70;2.50;;;22.50;55.50;23.20;100393.00;;;;4994170;28;20269;-48
2023/07/04 01:13:34;;;;;;;2.67;2.47;;;22.50;55.50;23.20;100403.00;;;;4977615;28;20223;-48
2023/07/04 01:16:03;;;;;;;2.60;2.40;;;22.50;55.50;23.20;100390.00;;;;5011324;28;20218;-48
2023/07/04 01:18:29;;;;;;;3.10;2.70;;;22.50;55.50;23.20;100393.00;;;;5011432;28;20168;-48
2023/07/04 01:20:55;;;;;;;2.63;2.43;;;22.50;55.50;23.20;100388.00;;;;4993869;28;20179;-47
2023/07/04 01:23:35;;;;;;;2.80;2.60;;;22.50;55.50;23.20;100396.00;;;;4994269;28;20168;-49
2023/07/04 01:26:30;;;;;;;2.63;2.43;;;22.50;55.60;23.20;100375.00;;;;4993587;28;20570;-47
2023/07/04 01:28:55;;;;;;;2.70;2.50;;;22.40;55.40;23.10;100389.00;;;;4993749;28;20195;-48
2023/07/04 01:31:23;;;;;;;2.40;2.20;;;22.50;55.50;23.10;100390.00;;;;5010070;28;20206;-48
2023/07/04 01:33:48;;;;;;;2.90;2.60;;;22.50;55.50;23.10;100386.00;;;;4961178;28;20647;-47
2023/07/04 01:36:22;;;;;;;2.47;2.27;;;22.40;55.50;23.10;100386.00;;;;4993565;28;20407;-49
2023/07/04 01:38:48;;;;;;;2.70;2.50;;;22.40;55.50;23.10;100392.00;;;;4978117;28;20180;-47
2023/07/04 01:44:55;;;;;;;2.70;2.43;;;22.40;55.50;23.10;100394.00;;;;5010308;28;20279;-48
2023/07/04 01:47:21;;;;;;;2.60;2.40;;;22.40;55.50;23.00;100387.00;;;;5011604;28;20195;-48
2023/07/04 01:49:46;;;;;;;2.63;2.43;;;22.40;55.50;23.10;100391.00;;;;5011059;28;20176;-48
2023/07/04 01:52:12;;;;;;;2.70;2.50;;;22.40;55.50;23.00;100390.00;;;;5011044;28;20200;-48
2023/07/04 01:54:38;;;;;;;2.60;2.40;;;22.40;55.50;23.00;100398.00;;;;5010410;28;20242;-47
2023/07/04 01:57:05;;;;;;;2.60;2.40;;;22.40;55.50;23.00;100393.00;;;;5010868;28;20195;-52
2023/07/04 01:59:31;;;;;;;2.50;2.30;;;22.40;55.50;23.10;100386.00;;;;5012718;28;20274;-47
2023/07/04 02:01:57;;;;;;;2.67;2.47;;;22.40;55.50;23.10;100387.00;;;;5012149;28;20197;-47
2023/07/04 02:04:22;;;;;;;2.50;2.30;;;22.40;55.50;23.00;100387.00;;;;5011226;28;20195;-48
2023/07/04 02:06:48;;;;;;;2.50;2.30;;;22.40;55.50;23.00;100379.00;;;;5010980;28;20699;-48
2023/07/04 02:09:16;;;;;;;2.50;2.30;;;22.30;55.30;23.00;100387.00;;;;5010992;28;20182;-48
2023/07/04 02:11:41;;;;;;;2.80;2.50;;;22.40;55.50;23.00;100389.00;;;;5010574;28;20179;-48
2023/07/04 02:14:07;;;;;;;2.57;2.37;;;22.30;55.40;23.00;100396.00;;;;5010107;28;20242;-48
2023/07/04 02:16:33;;;;;;;2.50;2.30;;;22.40;55.50;23.00;100398.00;;;;5010472;28;20188;-48
2023/07/04 02:18:58;;;;;;;2.57;2.37;;;22.30;55.40;23.00;100391.00;;;;4992902;28;20654;-48
2023/07/04 02:21:26;;;;;;;2.80;2.60;;;22.30;55.40;23.00;100402.00;;;;5010655;28;20172;-48
2023/07/04 02:23:52;;;;;;;2.90;2.53;;;22.30;55.40;23.00;100383.00;;;;4992863;28;20175;-49
2023/07/04 02:26:17;;;;;;;2.60;2.40;;;22.30;55.40;23.00;100401.00;;;;5010230;28;20195;-48
2023/07/04 02:28:43;;;;;;;2.53;2.33;;;22.40;55.60;23.00;100396.00;;;;5010088;28;20191;-48
2023/07/04 02:31:09;;;;;;;2.73;2.50;;;22.30;55.40;23.00;100402.00;;;;5010320;28;20212;-47
2023/07/04 02:33:35;;;;;;;2.50;2.30;;;22.30;55.40;23.00;100408.00;;;;5009752;28;20263;-48
2023/07/04 02:36:01;;;;;;;2.60;2.40;;;22.30;55.30;23.00;100404.00;;;;5009814;28;20261;-48
2023/07/04 02:38:27;;;;;;;2.43;2.23;;;22.30;55.40;23.00;100400.00;;;;5009967;28;20230;-48
2023/07/04 02:40:53;;;;;;;2.63;2.43;;;22.20;55.30;23.00;100407.00;;;;5010094;28;20579;-48
2023/07/04 02:43:18;;;;;;;2.77;2.57;;;22.20;55.30;23.00;100412.00;;;;5029760;28;20176;-47
2023/07/04 02:45:45;;;;;;;3.13;2.50;;;22.20;55.30;23.00;100410.00;;;;5016382;28;20199;-48
2023/07/04 02:48:11;;;;;;;2.60;2.40;;;22.20;55.30;22.90;100405.00;;;;5010201;28;20175;-47
2023/07/04 02:50:36;;;;;;;2.47;2.27;;;22.20;55.30;22.90;100407.00;;;;5010096;28;20650;-48
2023/07/04 02:53:02;;;;;;;2.50;2.30;;;22.20;55.30;22.90;100397.00;;;;5010490;28;20176;-48
2023/07/04 02:55:28;;;;;;;2.50;2.30;;;22.20;55.30;22.90;100401.00;;;;5010420;28;20210;-48
2023/07/04 02:57:54;;;;;;;2.50;2.30;;;22.20;55.30;22.90;100414.00;;;;5029725;28;20167;-48
2023/07/04 03:00:20;;;;;;;2.37;2.17;;;22.20;55.30;22.90;100366.00;;;;5012647;28;20175;-54
2023/07/04 03:02:46;;;;;;;2.60;2.40;;;22.20;55.40;22.90;100412.00;;;;4977708;28;20167;-48
2023/07/04 03:05:12;;;;;;;2.40;2.20;;;22.10;55.30;22.90;100411.00;;;;5010808;28;20642;-48
2023/07/04 03:07:38;;;;;;;2.50;2.30;;;22.10;55.30;22.80;100414.00;;;;5011051;28;20203;-48
2023/07/04 03:10:04;;;;;;;2.40;2.20;;;22.10;55.30;22.80;100411.00;;;;4993048;28;20263;-48
2023/07/04 03:12:29;;;;;;;2.40;2.20;;;22.10;55.40;22.80;100411.00;;;;5011011;28;20183;-48
2023/07/04 03:14:55;;;;;;;2.53;2.30;;;22.10;55.30;22.80;100404.00;;;;5010486;28;20203;-48
2023/07/04 03:17:21;;;;;;;2.30;2.10;;;22.10;55.40;22.80;100403.00;;;;4960913;28;20195;-48
2023/07/04 03:19:47;;;;;;;2.50;2.30;;;22.10;55.40;22.80;100402.00;;;;5010571;28;20183;-49
2023/07/04 03:22:12;;;;;;;2.33;2.13;;;22.10;55.40;22.80;100394.00;;;;5010374;28;20602;-48
2023/07/04 03:24:38;;;;;;;2.40;2.20;;;22.10;55.40;22.80;100392.00;;;;5018476;28;20230;-47
2023/07/04 03:27:04;;;;;;;2.30;2.10;;;22.10;55.40;22.80;100403.00;;;;5022438;28;20206;-48
2023/07/04 03:29:30;;;;;;;2.33;2.13;;;22.10;55.40;22.80;100401.00;;;;5013217;28;20556;-49
2023/07/04 03:31:56;;;;;;;2.47;2.27;;;22.10;55.40;22.80;100402.00;;;;5010510;28;20218;-47
2023/07/04 03:34:21;;;;;;;2.40;2.20;;;22.10;55.40;22.80;100409.00;;;;5010302;28;20172;-47
2023/07/04 03:36:47;;;;;;;2.50;2.30;;;22.10;55.40;22.70;100417.00;;;;5010472;28;20192;-48
2023/07/04 03:39:13;;;;;;;3.20;2.30;;;22.10;55.40;22.70;100421.00;;;;5010440;28;20178;-49
2023/07/04 03:41:38;;;;;;;2.40;2.20;;;22.00;55.30;22.70;100421.00;;;;5010374;28;20176;-47
2023/07/04 03:44:04;;;;;;;2.63;2.40;;;22.00;55.30;22.70;100424.00;;;;5010251;28;20179;-48
2023/07/04 03:46:30;;;;;;;2.40;2.20;;;22.00;55.30;22.70;100426.00;;;;5010408;28;20735;-48
2023/07/04 03:48:56;;;;;;;2.40;2.20;;;22.00;55.40;22.70;100419.00;;;;5009814;28;20179;-48
2023/07/04 03:51:21;;;;;;;2.30;2.10;;;22.10;55.40;22.70;100434.00;;;;4992449;28;20579;-47
2023/07/04 03:53:48;;;;;;;2.63;2.43;;;22.00;55.40;22.70;100429.00;;;;5009601;28;20260;-47
2023/07/04 03:56:14;;;;;;;2.23;2.10;;;22.00;55.40;22.70;100355.00;;;;5009794;28;20653;-47
2023/07/04 03:58:40;;;;;;;2.43;2.23;;;22.00;55.50;22.60;100424.00;;;;5009866;28;20179;-47
2023/07/04 04:01:06;;;;;;;2.20;2.00;;;22.00;55.50;22.60;100421.00;;;;5009521;28;20550;-47
2023/07/04 04:03:37;;;;;;;2.43;2.23;;;21.90;55.40;22.60;100428.00;;;;4992231;28;20178;-47
2023/07/04 04:06:07;;;;;;;2.50;2.30;;;21.90;55.40;22.60;100432.00;;;;5009825;28;20269;-47
2023/07/04 04:08:33;;;;;;;2.40;2.20;;;21.90;55.40;22.60;100432.00;;;;5010064;28;20749;-47
2023/07/04 04:10:59;;;;;;;2.40;2.20;;;21.90;55.40;22.60;100423.00;;;;5010109;28;20259;-48
2023/07/04 04:13:25;;;;;;;2.30;2.10;;;21.90;55.50;22.60;100417.00;;;;4992370;28;20226;-48
2023/07/04 04:15:51;;;;;;;2.43;2.23;;;21.90;55.40;22.60;100416.00;;;;5009521;28;20292;-47
2023/07/04 04:18:17;;;;;;;2.50;2.30;;;21.90;55.50;22.60;100425.00;;;;4992080;28;20175;-48
2023/07/04 04:20:43;;;;;;;2.27;2.10;;;21.90;55.50;22.60;100427.00;;;;5009661;28;20214;-47
2023/07/04 04:23:09;;;;;;;2.30;2.10;;;21.90;55.50;22.50;100427.00;;;;5009776;28;20207;-48
2023/07/04 04:25:38;;;;;;;2.50;2.30;;;21.90;55.50;22.60;100423.00;;;;5009621;28;20219;-48
2023/07/04 04:28:05;;;;;;;2.23;2.03;;;21.90;55.50;22.50;100419.00;;;;5009866;28;20280;-48
2023/07/04 04:30:30;;;;;;;2.57;2.17;;;21.80;55.50;22.50;100420.00;;;;4992425;28;20176;-47
2023/07/04 04:32:56;;;;;;;2.30;2.10;;;21.90;55.50;22.50;100434.00;;;;5009764;28;20610;-48
2023/07/04 04:35:22;;;;;;;3.13;2.07;;;21.90;55.50;22.50;100432.00;;;;5009532;28;20196;-47
2023/07/04 04:37:48;;;;;;;2.30;2.10;;;21.80;55.50;22.50;100431.00;;;;5009661;28;20176;-47
2023/07/04 04:40:13;;;;;;;2.40;2.20;;;21.80;55.50;22.50;100441.00;;;;5018930;28;20162;-47
2023/07/04 04:42:39;;;;;;;2.40;2.20;;;21.80;55.50;22.50;100438.00;;;;5031010;28;20164;-47
2023/07/04 04:45:07;;;;;;;2.10;2.00;;;21.80;55.50;22.50;100439.00;;;;5010538;28;20179;-48
2023/07/04 04:47:33;;;;;;;2.40;2.20;;;21.80;55.50;22.50;100441.00;;;;5009876;28;20211;-48
2023/07/04 04:50:00;;;;;;;2.40;2.20;;;21.80;55.50;22.50;100437.00;;;;5010499;28;20184;-49
2023/07/04 04:52:29;;;;;;;2.43;2.23;;;21.80;55.60;22.50;100445.00;;;;5010323;28;20180;-47
2023/07/04 04:54:55;;;;;;;2.50;2.17;;;21.80;55.50;22.50;100447.00;;;;5013309;28;20230;-48
2023/07/04 04:57:21;;;;;;;2.60;2.00;;;21.80;55.60;22.40;100454.00;;;;5002037;28;20191;-48
2023/07/04 04:59:47;;;;;;;2.47;2.20;;;21.80;55.60;22.50;100449.00;;;;5010622;28;20693;-48
2023/07/04 05:02:13;;;;;;;2.37;2.17;;;21.80;55.60;22.40;100455.00;;;;5009939;28;20230;-48
2023/07/04 05:04:39;;;;;;;2.30;2.03;;;21.80;55.60;22.40;100457.00;;;;5009325;28;20684;-47
2023/07/04 05:07:05;;;;;;;2.40;2.20;;;21.80;55.60;22.40;100446.00;;;;5012854;28;20231;-48
2023/07/04 05:09:31;;;;;;;2.23;2.03;;;21.80;55.60;22.40;100453.00;;;;5013226;28;20178;-48
2023/07/04 05:11:57;;;;;;;2.70;2.00;;;21.70;55.60;22.40;100454.00;;;;5013716;28;20213;-47
2023/07/04 05:14:22;;;;;;;2.10;2.00;;;21.70;55.60;22.40;100452.00;;;;4995514;28;20607;-47
2023/07/04 05:16:48;;;;;;;2.53;2.30;;;21.70;55.60;22.40;100460.00;;;;5013153;28;20271;-49
2023/07/04 05:19:14;;;;;;;2.10;1.90;;;21.80;55.60;22.40;100453.00;;;;5013343;28;20751;-47
2023/07/04 05:21:41;;;;;;;2.20;2.00;;;21.80;55.60;22.40;100474.00;;;;5013251;28;20172;-48
2023/07/04 05:24:07;;;;;;;2.63;2.20;;;21.70;55.60;22.40;100463.00;;;;5012633;28;20654;-47
2023/07/04 05:26:32;;;;;;;2.20;2.00;;;21.70;55.70;22.40;100448.00;;;;5012952;28;20231;-47
2023/07/04 05:28:58;;;;;;;2.57;2.10;;;21.70;55.70;22.40;100452.00;;;;4995144;28;20303;-47
2023/07/04 05:31:27;;;;;;;3.00;2.10;;;21.80;55.70;22.50;100460.00;;;;5012894;28;20207;-47
2023/07/04 05:33:53;;;;;;;4.47;2.20;;;21.70;55.70;22.40;100459.00;;;;5012452;28;20183;-47
2023/07/04 05:36:24;;;;;;;3.10;2.43;;;21.80;55.80;22.40;100460.00;;;;5012554;28;20246;-47
2023/07/04 05:38:52;;;;;;;3.80;2.20;;;21.70;55.90;22.50;100472.00;;;;5012376;28;20666;-48
2023/07/04 05:41:20;;;;;;;5.07;2.20;;;21.70;55.90;22.40;100468.00;;;;4994959;28;20176;-48
2023/07/04 05:43:46;;;;;;;3.17;2.20;;;21.70;56.00;22.40;100466.00;;;;5012112;28;20175;-47
2023/07/04 05:46:12;;;;;;;3.53;2.30;;;21.70;56.00;22.40;100465.00;;;;5012390;28;20202;-48
2023/07/04 05:48:38;;;;;;;5.13;2.40;;;21.70;56.00;22.40;100470.00;;;;5020083;28;20194;-48
2023/07/04 05:51:07;;;;;;;3.53;2.33;;;21.70;56.00;22.40;100473.00;;;;5019651;28;20265;-48
2023/07/04 05:53:34;;;;;;;4.80;2.47;;;21.70;56.00;22.40;100475.00;;;;5012674;28;20546;-48
2023/07/04 05:56:12;;;;;;;4.40;2.30;;;21.70;56.00;22.40;100475.00;;;;4994698;28;20557;-47
2023/07/04 05:58:40;;;;;;;6.97;2.40;;;21.70;56.00;22.10;100469.00;;;;5012156;28;20167;-48
2023/07/04 06:01:14;;;;;;;3.93;2.30;;;21.70;56.00;22.40;100478.00;;;;5012084;28;20175;-47
2023/07/04 06:03:40;;;;;;;4.93;2.20;;;21.70;56.00;22.40;100490.00;;;;5011889;28;20171;-47
2023/07/04 06:06:07;;;;;;;3.97;2.23;;;21.70;56.00;22.40;100484.00;;;;5012004;28;20199;-48
2023/07/04 06:08:33;;;;;;;3.17;2.30;;;21.70;56.00;22.40;100499.00;;;;5011746;28;20176;-47
2023/07/04 06:11:00;;;;;;;2.50;2.10;;;21.70;56.00;22.40;100495.00;;;;5012013;28;20180;-47
2023/07/04 06:13:25;;;;;;;5.70;2.27;;;21.60;55.90;22.30;100505.00;;;;5011850;28;20181;-48
2023/07/04 06:15:51;;;;;;;3.57;2.10;;;21.70;56.00;22.30;100503.00;;;;5011475;28;20213;-48
2023/07/04 06:18:17;;;;;;;3.57;2.30;;;21.60;55.90;22.30;100500.00;;;;5011341;28;20198;-47
2023/07/04 06:20:43;;;;;;;3.90;2.20;;;21.60;56.00;22.30;100494.00;;;;5011908;28;20661;-47
2023/07/04 06:23:09;;;;;;;3.00;2.23;;;21.60;56.00;22.30;100502.00;;;;5012004;28;20182;-48
2023/07/04 06:25:34;;;;;;;3.90;2.27;;;21.60;56.00;22.30;100487.00;;;;5011699;28;20179;-48
2023/07/04 06:28:01;;;;;;;4.73;2.20;;;21.60;56.10;22.30;100498.00;;;;5011556;28;20184;-47
2023/07/04 06:30:29;;;;;;;3.30;2.10;;;21.60;56.20;22.30;100502.00;;;;5011720;28;20186;-48
2023/07/04 06:32:56;;;;;;;2.73;2.20;;;21.60;56.30;22.30;100496.00;;;;5011433;28;20207;-48
2023/07/04 06:35:22;;;;;;;2.93;2.23;;;21.60;56.00;22.30;100508.00;;;;5011611;28;20634;-48
2023/07/04 06:37:47;;;;;;;2.77;2.20;;;21.60;56.00;22.30;100499.00;;;;5012042;28;20187;-48
2023/07/04 06:40:13;;;;;;;3.60;2.33;;;21.60;56.00;22.30;100510.00;;;;5035137;28;20183;-48
2023/07/04 06:42:39;;;;;;;3.73;2.27;;;21.60;56.00;22.30;100511.00;;;;5019517;28;20183;-48
2023/07/04 06:45:06;;;;;;;3.13;2.30;;;21.60;56.00;22.30;100508.00;;;;5016009;28;20180;-49
2023/07/04 06:47:32;;;;;;;2.37;2.10;;;21.60;56.00;22.30;100510.00;;;;5012023;28;20205;-48
2023/07/04 06:49:57;;;;;;;2.77;2.20;;;21.60;56.10;22.30;100505.00;;;;5011189;28;20175;-48
2023/07/04 06:52:23;;;;;;;2.30;2.10;;;21.60;56.10;22.30;100506.00;;;;5013522;28;20175;-48
2023/07/04 06:54:50;;;;;;;2.10;1.90;;;21.60;56.00;22.30;100512.00;;;;5034075;28;20231;-48
2023/07/04 06:57:16;;;;;;;3.13;2.20;;;21.60;56.10;22.30;100506.00;;;;5011175;28;20230;-48
2023/07/04 06:59:44;;;;;;;2.90;2.20;;;21.60;56.20;22.30;100513.00;;;;5011200;28;20172;-49
2023/07/04 07:02:11;;;;;;;3.57;2.20;;;21.60;56.10;22.30;100513.00;;;;5011381;28;20213;-49
2023/07/04 07:04:37;;;;;;;2.30;2.10;;;21.60;56.20;22.20;100523.00;;;;5010947;28;20171;-48
2023/07/04 07:07:05;;;;;;;2.50;2.10;;;21.50;56.00;22.20;100519.00;;;;5011175;28;20199;-48
2023/07/04 07:09:36;;;;;;;2.97;2.30;;;21.50;56.10;22.20;100519.00;;;;5011371;28;20179;-47
2023/07/04 07:12:02;;;;;;;2.30;2.10;;;21.60;56.20;22.20;100513.00;;;;5011082;28;20598;-48
2023/07/04 07:14:29;;;;;;;2.53;2.17;;;21.60;56.20;22.30;100519.00;;;;5010833;28;20176;-47
2023/07/04 07:16:57;;;;;;;2.33;2.13;;;21.60;56.20;22.30;100521.00;;;;5010778;28;20203;-48
2023/07/04 07:19:24;;;;;;;2.47;2.03;;;21.60;56.20;22.30;100528.00;;;;5010846;28;20171;-47
2023/07/04 07:21:49;;;;;;;2.83;2.10;;;21.60;56.20;22.20;100526.00;;;;5010523;28;20178;-47
2023/07/04 07:24:15;;;;;;;2.17;1.97;;;21.60;56.10;22.20;100535.00;;;;5010368;28;20172;-47
2023/07/04 07:26:42;;;;;;;2.57;2.30;;;21.50;56.20;22.30;100527.00;;;;5010393;28;20187;-48
2023/07/04 07:29:08;;;;;;;2.13;1.93;;;21.60;56.20;22.30;100530.00;;;;5009638;28;20736;-48
2023/07/04 07:31:34;;;;;;;2.13;1.93;;;21.50;56.10;22.30;100526.00;;;;5010403;28;20176;-49
2023/07/04 07:34:01;;;;;;;2.03;1.93;;;21.50;56.10;22.30;100525.00;;;;5010062;28;20182;-48
2023/07/04 07:36:31;;;;;;;2.70;2.20;;;21.50;56.20;22.30;100530.00;;;;5010247;28;20292;-48
2023/07/04 07:38:57;;;;;;;2.47;2.20;;;21.60;56.30;22.30;100532.00;;;;5010482;28;20182;-49
2023/07/04 07:41:36;;;;;;;2.17;1.97;;;21.50;56.20;22.30;100528.00;;;;5010356;28;20167;-47
2023/07/04 07:44:05;;;;;;;2.93;2.07;;;21.50;56.30;22.20;100540.00;;;;5010128;28;20178;-48
2023/07/04 07:46:31;;;;;;;2.60;2.10;;;21.50;56.30;22.30;100542.00;;;;5010241;28;20227;-47
2023/07/04 07:48:57;;;;;;;2.47;2.27;;;21.60;56.30;22.30;100541.00;;;;5009988;28;20215;-47
2023/07/04 07:51:23;;;;;;;2.00;1.80;;;21.60;56.30;22.30;100550.00;;;;5010078;28;20231;-48
2023/07/04 07:53:49;;;;;;;2.60;2.07;;;21.50;56.80;22.30;100544.00;;;;5010145;28;20680;-48
2023/07/04 07:56:18;;;;;;;2.40;2.20;;;21.60;56.30;22.30;100548.00;;;;5008671;28;20212;-49
2023/07/04 07:58:43;;;;;;;2.57;2.23;;;21.60;56.30;22.30;100537.00;;;;5010105;28;20179;-49
2023/07/04 08:01:21;;;;;;;2.50;2.07;;;21.50;56.20;22.30;100555.00;;;;5010160;28;20179;-47
2023/07/04 08:03:47;;;;;;;2.63;2.13;;;21.60;56.40;22.30;100550.00;;;;5009859;28;20176;-48
2023/07/04 08:06:29;;;;;;;2.13;2.00;;;21.50;56.30;22.30;100551.00;;;;5009931;28;20670;-48
2023/07/04 08:08:56;;;;;;;2.20;2.00;;;21.50;56.40;22.30;100553.00;;;;5011148;28;20564;-47
2023/07/04 08:11:22;;;;;;;2.10;1.90;;;21.50;56.40;22.30;100547.00;;;;5013395;28;20178;-50
2023/07/04 08:13:48;;;;;;;2.57;2.03;;;21.60;56.40;22.30;100539.00;;;;5018190;28;20182;-48
2023/07/04 08:16:25;;;;;;;2.40;2.20;;;21.50;56.40;22.30;100537.00;;;;5014264;28;20207;-47
2023/07/04 08:18:51;;;;;;;2.63;2.20;;;21.60;56.50;22.30;100541.00;;;;5012372;28;20176;-47
2023/07/04 08:21:17;;;;;;;2.13;1.93;;;21.60;56.50;22.30;100539.00;;;;5010545;28;20546;-47
2023/07/04 08:23:43;;;;;;;2.37;2.03;;;21.60;56.50;22.30;100537.00;;;;5009815;28;20172;-48
2023/07/04 08:26:15;;;;;;;2.20;2.00;;;21.60;56.50;22.30;100538.00;;;;5009799;28;20972;-47
2023/07/04 08:28:41;;;;;;;2.17;1.97;;;21.60;56.50;22.30;100543.00;;;;5009656;28;20203;-51
2023/07/04 08:31:08;;;;;;;2.90;2.20;;;21.60;56.50;22.30;100539.00;;;;5009705;28;20257;-46
2023/07/04 08:33:34;;;;;;;2.47;2.10;;;21.60;56.50;22.30;100545.00;;;;5009999;28;20188;-48
2023/07/04 08:36:02;;;;;;;2.30;2.10;;;21.50;56.40;22.30;100526.00;;;;5009620;28;20269;-48
2023/07/04 08:38:28;;;;;;;3.07;2.10;;;21.60;56.50;22.30;100533.00;;;;5007989;28;20160;-48
2023/07/04 08:40:54;;;;;;;2.30;2.10;;;21.60;56.50;22.30;100538.00;;;;5022412;28;20172;-48
2023/07/04 08:43:30;;;;;;;2.30;2.10;;;21.60;56.50;22.30;100523.00;;;;5014029;28;20313;-47
2023/07/04 08:45:56;;;;;;;2.40;2.20;;;21.60;56.60;22.30;100535.00;;;;4965202;28;20191;-47
2023/07/04 08:48:23;;;;;;;1.93;1.73;;;21.50;56.50;22.30;100537.00;;;;5012469;28;20180;-48
2023/07/04 08:50:49;;;;;;;2.37;2.13;;;21.60;56.50;22.30;100544.00;;;;4980160;28;20176;-48
2023/07/04 08:53:22;;;;;;;2.30;2.10;;;21.60;56.50;22.30;100526.00;;;;4999929;28;20168;-50
2023/07/04 08:56:12;;;;;;;2.30;2.10;;;21.60;57.20;22.40;100551.00;;;;4985487;28;20199;-48
2023/07/04 08:58:48;;;;;;;2.27;2.07;;;21.60;56.60;22.40;100549.00;;;;4964846;28;20178;-48
2023/07/04 09:01:21;;;;;;;2.23;2.03;;;21.60;56.60;22.30;100555.00;;;;4981020;28;20172;-48
2023/07/04 09:03:56;;;;;;;3.00;2.20;;;21.60;56.70;22.30;100554.00;;;;4964531;28;20254;-47
2023/07/04 09:06:32;;;;;;;2.20;2.00;;;21.60;56.70;22.40;100554.00;;;;4996544;28;20400;-48
2023/07/04 09:09:17;;;;;;;2.40;2.20;;;21.60;56.70;22.40;100558.00;;;;4979865;28;20205;-48
2023/07/04 09:11:43;;;;;;;2.33;1.90;;;21.60;56.70;22.30;100564.00;;;;5013237;28;20175;-48
2023/07/04 09:14:19;;;;;;;2.20;2.00;;;21.60;56.70;22.40;100555.00;;;;4995606;28;20195;-48
2023/07/04 09:16:47;;;;;;;2.47;2.17;;;21.60;56.70;22.40;100554.00;;;;4996509;28;20207;-48
2023/07/04 09:19:18;;;;;;;2.40;2.20;;;21.60;56.70;22.40;100552.00;;;;5013455;28;20183;-48
2023/07/04 09:21:44;;;;;;;2.20;2.00;;;21.60;56.70;22.40;100554.00;;;;4996657;28;20210;-48
2023/07/04 09:24:10;;;;;;;2.40;2.20;;;21.60;56.70;22.40;100561.00;;;;4995181;28;20222;-47
2023/07/04 09:26:49;;;;;;;2.60;2.30;;;21.60;56.70;22.40;100565.00;;;;5012857;28;20194;-47
2023/07/04 09:29:22;;;;;;;2.90;2.20;;;21.70;56.80;22.40;100566.00;;;;5012552;28;20572;-47
2023/07/04 09:31:55;;;;;;;3.20;2.10;;;21.60;56.70;22.40;100568.00;;;;4995615;28;20183;-49
2023/07/04 09:34:31;;;;;;;2.10;1.90;;;21.60;56.80;22.50;100577.00;;;;4995600;28;20590;-47
2023/07/04 09:36:57;;;;;;;2.03;1.93;;;21.60;56.80;22.50;100599.00;;;;5012389;28;20203;-48
2023/07/04 09:39:23;;;;;;;2.30;2.10;;;21.60;57.50;22.50;100604.00;;;;4994933;28;20187;-47
2023/07/04 09:41:59;;;;;;;2.83;2.40;;;21.60;57.00;22.50;100593.00;;;;4978683;28;20195;-48
2023/07/04 09:44:27;;;;;;;3.57;2.17;;;21.60;57.00;22.50;100570.00;;;;5012253;28;20252;-47
2023/07/04 09:46:54;;;;;;;2.47;2.10;;;21.60;57.00;22.50;100571.00;;;;4978760;28;20439;-48
2023/07/04 09:49:35;;;;;;;2.20;2.00;;;21.60;57.00;22.50;100571.00;;;;5011846;28;20183;-47
2023/07/04 09:52:09;;;;;;;2.20;2.00;;;21.60;57.10;22.50;100576.00;;;;5011663;28;20222;-47
2023/07/04 09:54:37;;;;;;;2.33;2.13;;;21.60;57.10;22.50;100570.00;;;;5013248;28;20183;-48
2023/07/04 09:57:27;;;;;;;2.10;1.90;;;21.60;57.10;22.50;100557.00;;;;5012132;28;20238;-48
2023/07/04 09:59:53;;;;;;;2.10;2.00;;;21.60;57.80;22.50;100568.00;;;;5015997;28;20176;-47
2023/07/04 10:02:25;;;;;;;2.30;2.10;;;21.70;57.30;22.50;100577.00;;;;5020266;28;20182;-48
2023/07/04 10:04:51;;;;;;;2.27;1.90;;;21.70;57.30;22.50;100567.00;;;;5015084;28;20179;-48
2023/07/04 10:07:24;;;;;;;2.30;2.10;;;21.70;57.40;22.50;100570.00;;;;4994707;28;20191;-48
2023/07/04 10:09:56;;;;;;;2.03;1.90;;;21.70;57.40;22.50;100573.00;;;;5011002;28;20169;-47
2023/07/04 10:12:23;;;;;;;2.30;2.10;;;21.70;57.40;22.50;100565.00;;;;5011950;28;20175;-47
2023/07/04 10:14:53;;;;;;;2.40;2.20;;;21.70;57.40;22.50;100547.00;;;;4978392;28;20241;-48
2023/07/04 10:17:28;;;;;;;2.10;1.90;;;21.70;57.40;22.50;100560.00;;;;4994345;28;20262;-48
2023/07/04 10:20:08;;;;;;;2.40;2.20;;;21.70;57.40;22.60;100552.00;;;;5011911;28;20178;-49
2023/07/04 10:22:38;;;;;;;2.57;2.20;;;21.70;57.40;22.50;100555.00;;;;4995668;28;20179;-48
2023/07/04 10:25:09;;;;;;;2.20;1.97;;;21.70;57.40;22.60;100563.00;;;;5011457;28;20179;-48
2023/07/04 10:27:36;;;;;;;2.20;2.00;;;21.70;57.40;22.60;100554.00;;;;4978453;28;20588;-48
2023/07/04 10:30:12;;;;;;;2.30;2.10;;;21.80;57.50;22.60;100544.00;;;;4996726;28;20191;-47
2023/07/04 10:32:45;;;;;;;2.53;2.07;;;21.70;57.40;22.60;100544.00;;;;4985771;28;20183;-55
2023/07/04 10:35:14;;;;;;;2.60;2.20;;;21.80;57.50;22.60;100554.00;;;;5011249;28;20195;-48
2023/07/04 10:37:41;;;;;;;2.37;2.17;;;21.80;57.50;22.60;100553.00;;;;5004929;28;20195;-48
2023/07/04 10:40:14;;;;;;;2.63;2.00;;;21.80;57.50;22.60;100562.00;;;;4994935;28;20179;-48
2023/07/04 10:43:18;;;;;;;2.77;2.27;;;21.80;57.50;22.70;100537.00;;;;4966711;28;20186;-48
2023/07/04 10:45:43;;;;;;;2.50;2.10;;;21.80;57.60;22.70;100543.00;;;;4993746;28;20202;-47
2023/07/04 10:48:14;;;;;;;2.50;2.20;;;21.80;57.70;22.70;100544.00;;;;5011167;28;20183;-47
2023/07/04 10:51:19;;;;;;;2.53;2.10;;;21.80;57.70;22.70;100551.00;;;;4978315;28;20267;-48
2023/07/04 10:53:44;;;;;;;2.23;2.03;;;21.80;57.70;22.70;100541.00;;;;5025695;28;20191;-47
2023/07/04 10:56:32;;;;;;;2.67;2.30;;;21.80;57.80;22.70;100547.00;;;;5011442;28;20235;-47